createdAt,value
2023-03-23T15:59:44.021Z,18.98
2023-03-23T16:02:20.087Z,15.60
2023-03-23T16:04:49.028Z,7.90
2023-03-23T16:07:21.364Z,10.40
2023-03-23T16:09:49.253Z,8.63
2023-03-23T16:12:17.282Z,11.60
2023-03-23T16:14:45.134Z,12.43
2023-03-23T16:17:18.335Z,18.57
2023-03-23T16:19:46.194Z,23.07
2023-03-23T16:22:14.325Z,23.35
2023-03-23T16:24:43.378Z,243.95
2023-03-23T16:27:12.176Z,47.17
2023-03-23T16:29:59.783Z,21.10
2023-03-23T16:32:09.677Z,23.60
2023-03-23T16:34:37.828Z,31.25
2023-03-23T16:37:06.319Z,45.92
2023-03-23T16:39:34.053Z,42.50
2023-03-23T16:42:01.923Z,40.28
2023-03-23T16:44:29.790Z,41.50
2023-03-23T16:46:57.591Z,71.75
2023-03-23T16:49:25.312Z,88.80
2023-03-23T16:51:53.265Z,93.30
2023-03-23T16:54:22.745Z,86.40
2023-03-23T16:56:50.445Z,113.92
2023-03-23T16:59:18.208Z,96.45
2023-03-23T17:01:45.920Z,66.22
2023-03-23T17:04:15.200Z,54.38
2023-03-23T17:06:43.576Z,58.92
2023-03-23T17:09:13.040Z,63.02
2023-03-23T17:11:40.802Z,56.88
2023-03-23T17:14:08.552Z,68.55
2023-03-23T17:16:36.538Z,56.48
2023-03-23T17:19:04.437Z,58.65
2023-03-23T17:21:33.613Z,60.43
2023-03-23T17:24:02.434Z,57.60
2023-03-23T17:26:30.110Z,59.38
2023-03-23T17:28:58.004Z,54.93
2023-03-23T17:31:26.209Z,67.92
2023-03-23T17:33:54.107Z,64.65
2023-03-23T17:36:21.961Z,73.00
2023-03-23T17:38:50.613Z,81.42
2023-03-23T17:41:20.603Z,87.25
2023-03-23T17:43:48.620Z,83.90
2023-03-23T17:46:16.386Z,72.70
2023-03-23T17:48:44.235Z,69.85
2023-03-23T17:51:12.015Z,58.85
2023-03-23T17:53:39.982Z,59.88
2023-03-23T17:56:08.765Z,57.50
2023-03-23T17:58:36.888Z,55.45
2023-03-23T18:01:05.364Z,72.20
2023-03-23T18:03:33.359Z,82.02
2023-03-23T18:06:04.803Z,88.67
2023-03-23T18:08:33.809Z,86.97
2023-03-23T18:11:01.921Z,113.20
2023-03-23T18:13:32.875Z,142.45
2023-03-23T18:16:03.338Z,131.67
2023-03-23T18:18:31.530Z,103.15
2023-03-23T18:21:07.338Z,84.60
2023-03-23T18:23:45.969Z,75.03
2023-03-23T18:26:10.444Z,66.95
2023-03-23T18:28:38.926Z,58.40
2023-03-23T18:31:14.102Z,55.73
2023-03-23T18:33:45.635Z,87.37
2023-03-23T18:36:18.186Z,76.00
2023-03-23T18:38:48.278Z,69.77
2023-03-23T18:41:17.606Z,69.53
2023-03-23T18:43:45.610Z,67.05
2023-03-23T18:46:15.035Z,60.12
2023-03-23T18:48:43.444Z,70.28
2023-03-23T18:51:11.657Z,68.10
2023-03-23T18:53:41.298Z,67.78
2023-03-23T18:56:17.792Z,69.53
2023-03-23T18:58:45.824Z,68.30
2023-03-23T19:01:17.103Z,69.85
2023-03-23T19:03:45.646Z,69.65
2023-03-23T19:06:21.283Z,67.50
2023-03-23T19:08:51.390Z,67.32
2023-03-23T19:11:21.314Z,64.87
2023-03-23T19:14:00.366Z,64.77
2023-03-23T19:16:18.630Z,69.03
2023-03-23T19:18:46.648Z,60.52
2023-03-23T19:21:17.586Z,64.27
2023-03-23T19:23:43.863Z,62.83
2023-03-23T19:26:23.125Z,60.12
2023-03-23T19:31:22.662Z,42.35
2023-03-23T19:33:52.536Z,42.13
2023-03-23T19:36:24.843Z,40.92
2023-03-23T19:38:54.258Z,57.80
2023-03-23T19:41:22.017Z,59.53
2023-03-23T19:43:50.245Z,55.70
2023-03-23T19:46:18.202Z,58.70
2023-03-23T19:48:46.663Z,55.05
2023-03-23T19:51:18.857Z,61.35
2023-03-23T19:53:47.221Z,64.35
2023-03-23T19:56:18.288Z,52.73
2023-03-23T19:58:46.615Z,49.23
2023-03-23T20:01:15.547Z,61.05
2023-03-23T20:03:43.727Z,67.30
2023-03-23T20:06:14.791Z,74.20
2023-03-23T20:08:45.470Z,55.78
2023-03-23T20:11:17.161Z,45.60
2023-03-23T20:13:48.026Z,47.85
2023-03-23T20:16:17.712Z,40.90
2023-03-23T20:18:46.850Z,35.92
2023-03-23T20:21:22.507Z,32.60
2023-03-23T20:23:57.135Z,32.60
2023-03-23T20:26:29.412Z,30.55
2023-03-23T20:28:57.665Z,28.70
2023-03-23T20:31:29.977Z,30.05
2023-03-23T20:34:02.694Z,27.05
2023-03-23T20:36:39.677Z,30.97
2023-03-23T20:39:14.756Z,34.53
2023-03-23T20:41:43.117Z,29.95
2023-03-23T20:44:14.930Z,25.72
2023-03-23T20:46:45.759Z,23.45
2023-03-23T20:49:15.284Z,25.95
2023-03-23T20:51:44.381Z,24.77
2023-03-23T20:54:15.195Z,31.50
2023-03-23T20:56:44.500Z,39.08
2023-03-23T20:59:13.381Z,42.55
2023-03-23T21:01:41.550Z,41.70
2023-03-23T21:04:14.738Z,44.93
2023-03-23T21:06:44.691Z,34.25
2023-03-23T21:09:14.095Z,25.68
2023-03-23T21:11:43.203Z,27.98
2023-03-23T21:14:12.032Z,29.65
2023-03-23T21:16:40.822Z,35.10
2023-03-23T21:19:09.252Z,34.18
2023-03-23T21:21:38.726Z,31.07
2023-03-23T21:24:09.782Z,37.80
2023-03-23T21:26:39.136Z,29.57
2023-03-23T21:29:09.262Z,21.82
2023-03-23T21:31:38.094Z,18.00
2023-03-23T21:34:06.080Z,19.48
2023-03-23T21:36:35.042Z,18.32
2023-03-23T21:39:05.531Z,17.40
2023-03-23T21:41:42.570Z,22.40
2023-03-23T21:44:06.754Z,23.35
2023-03-23T21:46:34.463Z,21.90
2023-03-23T21:49:03.122Z,23.67
2023-03-23T21:51:32.244Z,29.85
2023-03-23T21:54:00.020Z,29.95
2023-03-23T21:56:28.080Z,29.60
2023-03-23T21:58:57.022Z,26.62
2023-03-23T22:01:25.127Z,17.95
2023-03-23T22:03:53.296Z,17.37
2023-03-23T22:06:26.113Z,22.82
2023-03-23T22:08:58.097Z,22.85
2023-03-23T22:11:30.624Z,26.50
2023-03-23T22:13:58.949Z,23.83
2023-03-23T22:16:27.463Z,20.62
2023-03-23T22:18:59.564Z,20.20
2023-03-23T22:21:26.716Z,21.17
2023-03-23T22:23:58.202Z,19.42
2023-03-23T22:26:27.912Z,19.92
2023-03-23T22:28:57.699Z,16.62
2023-03-23T22:31:29.613Z,18.50
2023-03-23T22:33:57.527Z,16.05
2023-03-23T22:36:28.035Z,19.57
2023-03-23T22:38:56.158Z,15.72
2023-03-23T22:41:32.028Z,16.65
2023-03-23T22:43:59.921Z,13.20
2023-03-23T22:46:27.860Z,14.93
2023-03-23T22:48:55.914Z,16.73
2023-03-23T22:51:24.109Z,15.60
2023-03-23T22:53:52.266Z,14.33
2023-03-23T22:56:21.127Z,13.45
2023-03-23T22:58:48.941Z,17.62
2023-03-23T23:01:22.208Z,18.55
2023-03-23T23:06:20.177Z,19.95
2023-03-23T23:08:48.805Z,17.10
2023-03-23T23:11:19.365Z,14.07
2023-03-23T23:13:47.966Z,13.10
2023-03-23T23:16:16.800Z,10.80
2023-03-23T23:18:48.208Z,12.00
2023-03-23T23:21:21.942Z,11.53
2023-03-23T23:23:51.244Z,12.95
2023-03-23T23:26:19.215Z,11.93
2023-03-23T23:28:48.044Z,13.40
2023-03-23T23:31:30.811Z,15.23
2023-03-23T23:34:01.138Z,15.70
2023-03-23T23:36:31.700Z,14.25
2023-03-23T23:39:01.941Z,17.52
2023-03-23T23:41:30.204Z,16.65
2023-03-23T23:43:58.954Z,18.67
2023-03-23T23:46:29.913Z,14.23
2023-03-23T23:48:58.623Z,15.25
2023-03-23T23:51:26.975Z,15.50
2023-03-23T23:53:57.878Z,15.45
2023-03-23T23:56:25.795Z,15.65
2023-03-23T23:58:53.630Z,18.27
